createdAt,value
2023-04-17T00:02:02.921Z,8.41
2023-04-17T00:04:30.877Z,8.41
2023-04-17T00:06:59.294Z,8.39
2023-04-17T00:09:26.158Z,8.38
2023-04-17T00:11:52.532Z,8.37
2023-04-17T00:14:18.855Z,8.40
2023-04-17T00:16:45.249Z,8.39
2023-04-17T00:19:11.935Z,8.39
2023-04-17T00:21:38.486Z,8.40
2023-04-17T00:24:05.051Z,8.38
2023-04-17T00:26:32.573Z,8.38
2023-04-17T00:28:58.913Z,8.38
2023-04-17T00:31:25.240Z,8.37
2023-04-17T00:33:51.658Z,8.37
2023-04-17T00:36:18.066Z,8.36
2023-04-17T00:38:44.430Z,8.32
2023-04-17T00:41:11.478Z,8.34
2023-04-17T00:43:38.799Z,8.29
2023-04-17T00:46:06.102Z,8.26
2023-04-17T00:48:34.939Z,8.21
2023-04-17T00:51:03.152Z,8.18
2023-04-17T00:53:33.270Z,8.19
2023-04-17T00:56:01.052Z,8.19
2023-04-17T00:58:27.693Z,8.15
2023-04-17T01:00:54.109Z,8.13
2023-04-17T01:03:21.728Z,8.13
2023-04-17T01:05:51.755Z,8.11
2023-04-17T01:08:19.025Z,8.13
2023-04-17T01:10:45.369Z,8.12
2023-04-17T01:13:11.720Z,8.13
2023-04-17T01:15:38.452Z,8.12
2023-04-17T01:18:05.141Z,8.13
2023-04-17T01:20:32.252Z,8.14
2023-04-17T01:22:59.150Z,8.12
2023-04-17T01:25:27.063Z,8.10
2023-04-17T01:27:54.179Z,8.08
2023-04-17T01:30:20.973Z,8.07
2023-04-17T01:32:47.410Z,8.06
2023-04-17T01:35:13.786Z,8.05
2023-04-17T01:37:40.102Z,8.08
2023-04-17T01:40:09.597Z,8.08
2023-04-17T01:42:36.082Z,8.06
2023-04-17T01:45:02.646Z,8.05
2023-04-17T01:47:29.052Z,8.04
2023-04-17T01:49:55.454Z,8.03
2023-04-17T01:52:21.760Z,7.98
2023-04-17T01:54:48.097Z,7.99
2023-04-17T01:57:14.405Z,7.98
2023-04-17T01:59:40.775Z,7.98
2023-04-17T02:02:07.243Z,7.97
2023-04-17T02:04:33.626Z,7.97
2023-04-17T02:07:00.026Z,7.94
2023-04-17T02:09:26.977Z,7.94
2023-04-17T02:11:53.336Z,7.92
2023-04-17T02:14:20.717Z,7.91
2023-04-17T02:16:47.132Z,7.91
2023-04-17T02:19:13.896Z,7.92
2023-04-17T02:21:40.662Z,7.90
2023-04-17T02:24:07.108Z,7.90
2023-04-17T02:26:33.714Z,7.90
2023-04-17T02:29:00.036Z,7.90
2023-04-17T02:31:27.188Z,7.88
2023-04-17T02:33:53.556Z,7.90
2023-04-17T02:36:19.891Z,7.91
2023-04-17T02:38:46.329Z,7.90
2023-04-17T02:41:12.629Z,7.91
2023-04-17T02:43:38.983Z,7.90
2023-04-17T02:46:05.602Z,7.89
2023-04-17T02:48:31.957Z,7.90
2023-04-17T02:50:58.316Z,7.91
2023-04-17T02:53:24.659Z,7.91
2023-04-17T02:55:50.975Z,7.90
2023-04-17T02:58:17.322Z,7.86
2023-04-17T03:00:43.736Z,7.88
2023-04-17T03:03:10.322Z,7.88
2023-04-17T03:05:36.701Z,7.87
2023-04-17T03:08:03.320Z,7.87
2023-04-17T03:10:29.703Z,7.85
2023-04-17T03:12:56.049Z,7.85
2023-04-17T03:15:22.552Z,7.84
2023-04-17T03:17:48.983Z,7.82
2023-04-17T03:20:16.085Z,7.82
2023-04-17T03:22:42.636Z,7.84
2023-04-17T03:25:09.682Z,7.84
2023-04-17T03:27:36.299Z,7.85
2023-04-17T03:30:02.840Z,7.84
2023-04-17T03:32:29.200Z,7.84
2023-04-17T03:34:55.609Z,7.82
2023-04-17T03:37:22.562Z,7.83
2023-04-17T03:39:48.916Z,7.83
2023-04-17T03:42:15.369Z,7.81
2023-04-17T03:44:41.750Z,7.78
2023-04-17T03:47:08.067Z,7.77
2023-04-17T03:49:34.476Z,7.78
2023-04-17T03:52:03.561Z,7.75
2023-04-17T03:54:29.947Z,7.76
2023-04-17T03:56:56.970Z,7.77
2023-04-17T03:59:23.585Z,7.76
2023-04-17T04:01:50.072Z,7.76
2023-04-17T04:04:17.080Z,7.78
2023-04-17T04:06:43.732Z,7.77
2023-04-17T04:09:10.247Z,7.75
2023-04-17T04:11:37.304Z,7.75
2023-04-17T04:14:03.668Z,7.75
2023-04-17T04:16:30.240Z,7.74
2023-04-17T04:18:56.714Z,7.77
2023-04-17T04:21:23.720Z,7.79
2023-04-17T04:23:50.963Z,7.80
2023-04-17T04:26:17.354Z,7.79
2023-04-17T04:28:43.905Z,7.77
2023-04-17T04:31:10.857Z,7.78
2023-04-17T04:33:37.648Z,7.78
2023-04-17T04:36:04.412Z,7.78
2023-04-17T04:38:31.110Z,7.79
2023-04-17T04:41:01.491Z,7.79
2023-04-17T04:43:29.107Z,7.78
2023-04-17T04:45:55.919Z,7.74
2023-04-17T04:48:22.419Z,7.75
2023-04-17T04:50:48.911Z,7.75
2023-04-17T04:53:15.371Z,7.74
2023-04-17T04:55:41.718Z,7.74
2023-04-17T04:58:08.149Z,7.74
2023-04-17T05:00:34.468Z,7.75
2023-04-17T05:03:01.255Z,7.78
2023-04-17T05:05:27.921Z,7.80
2023-04-17T05:07:54.953Z,7.81
2023-04-17T05:10:21.540Z,7.80
2023-04-17T05:12:47.865Z,7.77
2023-04-17T05:15:14.320Z,7.75
2023-04-17T05:17:41.616Z,7.76
2023-04-17T05:20:12.240Z,7.76
2023-04-17T05:22:38.898Z,7.73
2023-04-17T05:25:05.399Z,7.74
2023-04-17T05:27:31.739Z,7.73
2023-04-17T05:29:58.067Z,7.69
2023-04-17T05:32:24.447Z,7.66
2023-04-17T05:34:51.028Z,7.66
2023-04-17T05:37:17.389Z,7.67
2023-04-17T05:39:43.726Z,7.67
2023-04-17T05:42:10.123Z,7.69
2023-04-17T05:44:36.888Z,7.69
2023-04-17T05:47:03.480Z,7.67
2023-04-17T05:49:30.076Z,7.66
2023-04-17T05:51:56.481Z,7.70
2023-04-17T05:54:22.841Z,7.73
2023-04-17T05:56:49.916Z,7.74
2023-04-17T05:59:16.633Z,7.76
2023-04-17T06:01:43.594Z,7.72
2023-04-17T06:04:10.265Z,7.76
2023-04-17T06:06:36.881Z,7.76
2023-04-17T06:09:05.594Z,7.75
2023-04-17T06:11:31.980Z,7.75
2023-04-17T06:13:58.392Z,7.68
2023-04-17T06:16:24.816Z,7.67
2023-04-17T06:18:51.274Z,7.67
2023-04-17T06:21:17.791Z,7.68
2023-04-17T06:23:44.119Z,7.72
2023-04-17T06:26:12.199Z,7.73
2023-04-17T06:28:38.636Z,7.76
2023-04-17T06:31:05.237Z,7.77
2023-04-17T06:33:31.739Z,7.82
2023-04-17T06:35:58.196Z,7.78
2023-04-17T06:38:24.613Z,7.75
2023-04-17T06:40:52.722Z,7.76
2023-04-17T06:43:20.012Z,7.74
2023-04-17T06:45:47.576Z,7.73
2023-04-17T06:48:14.069Z,7.72
2023-04-17T06:50:40.631Z,7.73
2023-04-17T06:53:08.624Z,7.72
2023-04-17T06:55:35.097Z,7.74
2023-04-17T06:58:01.450Z,7.72
2023-04-17T07:00:27.919Z,7.74
2023-04-17T07:02:54.447Z,7.80
2023-04-17T07:05:20.887Z,7.82
2023-04-17T07:07:48.087Z,7.84
2023-04-17T07:10:15.846Z,7.96
2023-04-17T07:12:42.414Z,8.01
2023-04-17T07:15:09.619Z,8.07
2023-04-17T07:17:36.594Z,8.16
2023-04-17T07:20:05.465Z,8.20
2023-04-17T07:22:31.906Z,8.18
2023-04-17T07:24:58.303Z,8.28
2023-04-17T07:27:24.634Z,8.36
2023-04-17T07:29:54.639Z,8.46
2023-04-17T07:32:24.104Z,8.49
2023-04-17T07:34:51.035Z,8.53
2023-04-17T07:37:17.373Z,8.58
2023-04-17T07:39:45.373Z,8.55
2023-04-17T07:42:11.856Z,8.54
2023-04-17T07:44:38.988Z,8.58
2023-04-17T07:47:08.899Z,8.61
2023-04-17T07:49:36.194Z,8.68
2023-04-17T07:52:04.968Z,8.63
2023-04-17T07:54:33.106Z,8.64
2023-04-17T07:57:03.692Z,8.67
2023-04-17T07:59:30.644Z,8.69
2023-04-17T08:01:58.989Z,8.71
2023-04-17T08:04:27.223Z,8.76
2023-04-17T08:06:56.945Z,8.90
2023-04-17T08:09:23.333Z,9.02
2023-04-17T08:11:57.200Z,9.07
2023-04-17T08:14:24.394Z,9.07
2023-04-17T08:16:53.483Z,9.06
2023-04-17T08:19:23.152Z,9.04
2023-04-17T08:21:55.901Z,9.04
2023-04-17T08:24:25.484Z,9.03
2023-04-17T08:26:55.709Z,9.05
2023-04-17T08:29:23.691Z,9.03
2023-04-17T08:31:55.216Z,9.06
2023-04-17T08:34:27.279Z,9.10
2023-04-17T08:36:53.603Z,9.13
2023-04-17T08:39:20.477Z,9.14
2023-04-17T08:41:54.154Z,9.18
2023-04-17T08:44:23.689Z,9.25
2023-04-17T08:46:52.461Z,9.26
2023-04-17T08:49:18.952Z,9.31
2023-04-17T08:51:45.444Z,9.37
2023-04-17T08:54:11.828Z,9.45
2023-04-17T08:56:38.246Z,9.65
2023-04-17T08:59:04.860Z,9.84
2023-04-17T09:01:35.953Z,9.95
2023-04-17T09:04:03.258Z,10.04
2023-04-17T09:06:48.832Z,10.21
2023-04-17T09:09:15.614Z,10.35
2023-04-17T09:11:41.945Z,10.43
2023-04-17T09:14:33.930Z,10.65
2023-04-17T09:17:00.862Z,10.98
2023-04-17T09:19:28.045Z,11.27
2023-04-17T09:21:56.670Z,11.42
2023-04-17T09:24:34.481Z,11.63
2023-04-17T09:27:21.670Z,11.52
2023-04-17T09:30:05.976Z,11.60
2023-04-17T09:32:35.597Z,11.65
2023-04-17T09:35:04.744Z,11.75
2023-04-17T09:37:51.160Z,11.71
2023-04-17T09:40:19.412Z,11.68
2023-04-17T09:42:57.919Z,11.72
2023-04-17T09:45:26.383Z,11.78
2023-04-17T09:47:57.306Z,11.94
2023-04-17T09:50:27.309Z,12.12
2023-04-17T09:52:55.355Z,12.17
2023-04-17T09:55:23.744Z,12.16
2023-04-17T09:57:55.010Z,12.23
2023-04-17T10:00:23.581Z,12.33
2023-04-17T10:02:51.967Z,12.37
2023-04-17T10:05:30.068Z,12.29
2023-04-17T10:07:56.976Z,12.25
2023-04-17T10:10:26.241Z,12.24
2023-04-17T10:13:01.785Z,12.34
2023-04-17T10:15:29.755Z,12.47
2023-04-17T10:18:25.322Z,12.44
2023-04-17T10:20:53.321Z,12.67
2023-04-17T10:23:28.322Z,12.80
2023-04-17T10:26:25.734Z,12.86
2023-04-17T10:28:53.600Z,12.88
2023-04-17T10:31:21.047Z,12.81
2023-04-17T10:33:52.796Z,12.97
2023-04-17T10:36:37.698Z,13.29
2023-04-17T10:39:14.957Z,13.39
2023-04-17T10:42:04.707Z,13.60
2023-04-17T10:44:35.264Z,13.69
2023-04-17T10:47:14.132Z,13.62
2023-04-17T10:49:49.411Z,13.75
2023-04-17T10:52:41.349Z,13.93
2023-04-17T10:55:17.104Z,14.12
2023-04-17T10:58:03.388Z,14.19
2023-04-17T11:00:36.695Z,14.10
2023-04-17T11:03:04.951Z,14.16
2023-04-17T11:05:31.934Z,14.55
2023-04-17T11:07:59.253Z,14.90
2023-04-17T11:10:26.351Z,15.04
2023-04-17T11:12:53.923Z,15.00
2023-04-17T11:15:28.283Z,15.02
2023-04-17T11:17:56.105Z,15.01
2023-04-17T11:20:24.400Z,15.12
2023-04-17T11:22:51.215Z,15.07
2023-04-17T11:25:31.754Z,15.25
2023-04-17T11:27:59.110Z,15.35
2023-04-17T11:30:29.730Z,15.42
2023-04-17T11:33:01.192Z,15.64
2023-04-17T11:35:54.962Z,15.89
2023-04-17T11:38:24.325Z,16.00
2023-04-17T11:40:51.716Z,15.86
2023-04-17T11:43:19.277Z,15.80
2023-04-17T11:45:47.735Z,15.98
2023-04-17T11:48:15.759Z,16.09
2023-04-17T11:50:44.114Z,16.49
2023-04-17T11:53:15.242Z,16.68
2023-04-17T11:55:43.391Z,16.78
2023-04-17T11:58:12.809Z,16.96
2023-04-17T12:00:40.641Z,16.76
2023-04-17T12:03:35.641Z,16.81
2023-04-17T12:06:04.609Z,16.64
2023-04-17T12:08:31.397Z,16.94
2023-04-17T12:10:58.520Z,16.99
2023-04-17T12:13:25.757Z,16.94
2023-04-17T12:15:52.208Z,16.62
2023-04-17T12:18:18.603Z,16.39
2023-04-17T12:20:44.986Z,16.39
2023-04-17T12:23:11.345Z,16.27
2023-04-17T12:25:37.663Z,16.30
2023-04-17T12:28:04.958Z,16.27
2023-04-17T12:30:33.666Z,16.43
2023-04-17T12:33:00.533Z,16.31
2023-04-17T12:35:28.486Z,16.10
2023-04-17T12:37:54.811Z,16.10
2023-04-17T12:40:25.049Z,16.05
2023-04-17T12:42:51.459Z,15.92
2023-04-17T12:45:18.860Z,15.67
2023-04-17T12:47:45.562Z,15.79
2023-04-17T12:50:12.482Z,16.10
2023-04-17T12:52:40.340Z,16.39
2023-04-17T12:55:08.151Z,16.74
2023-04-17T12:57:38.168Z,16.94
2023-04-17T13:00:09.265Z,17.30
2023-04-17T13:02:36.538Z,17.35
2023-04-17T13:05:04.483Z,17.57
2023-04-17T13:07:31.163Z,17.53
2023-04-17T13:09:57.665Z,17.37
2023-04-17T13:12:24.225Z,17.22
2023-04-17T13:14:50.709Z,17.02
2023-04-17T13:17:17.729Z,16.97
2023-04-17T13:19:44.919Z,17.03
2023-04-17T13:22:11.352Z,17.04
2023-04-17T13:24:37.801Z,17.13
2023-04-17T13:27:04.501Z,17.01
2023-04-17T13:29:31.112Z,16.78
2023-04-17T13:31:57.457Z,16.42
2023-04-17T13:34:23.807Z,16.32
2023-04-17T13:36:50.199Z,16.29
2023-04-17T13:39:16.701Z,16.21
2023-04-17T13:41:43.078Z,16.43
2023-04-17T13:44:09.688Z,16.70
2023-04-17T13:46:36.392Z,16.60
2023-04-17T13:49:02.802Z,16.74
2023-04-17T13:51:29.536Z,17.24
2023-04-17T13:53:58.623Z,17.38
2023-04-17T13:56:26.790Z,17.59
2023-04-17T13:58:55.377Z,17.93
2023-04-17T14:01:22.006Z,17.99
2023-04-17T14:03:48.608Z,17.80
2023-04-17T14:06:17.627Z,17.49
2023-04-17T14:08:45.272Z,17.33
2023-04-17T14:11:13.859Z,17.67
2023-04-17T14:13:40.209Z,18.08
2023-04-17T14:16:06.827Z,18.14
2023-04-17T14:18:33.285Z,17.88
2023-04-17T14:20:59.795Z,17.56
2023-04-17T14:23:26.113Z,17.24
2023-04-17T14:25:52.511Z,17.08
2023-04-17T14:28:18.962Z,16.79
2023-04-17T14:30:45.321Z,16.64
2023-04-17T14:33:11.721Z,16.52
2023-04-17T14:35:40.007Z,16.38
2023-04-17T14:38:06.841Z,16.27
2023-04-17T14:40:33.517Z,16.40
2023-04-17T14:42:59.830Z,16.78
2023-04-17T14:45:26.268Z,17.17
2023-04-17T14:47:52.851Z,17.32
2023-04-17T14:50:19.412Z,17.45
2023-04-17T14:52:45.858Z,17.47
2023-04-17T14:55:12.602Z,17.30
2023-04-17T14:57:39.329Z,17.02
2023-04-17T15:00:07.566Z,16.72
2023-04-17T15:02:38.302Z,16.46
2023-04-17T15:05:06.024Z,16.20
2023-04-17T15:07:32.430Z,16.06
2023-04-17T15:09:59.253Z,15.97
2023-04-17T15:12:25.604Z,15.91
2023-04-17T15:14:51.969Z,15.83
2023-04-17T15:17:18.340Z,15.82
2023-04-17T15:19:44.780Z,15.78
2023-04-17T15:22:11.138Z,15.70
2023-04-17T15:24:37.466Z,15.61
2023-04-17T15:27:03.800Z,15.52
2023-04-17T15:29:30.536Z,15.49
2023-04-17T15:31:56.911Z,15.41
2023-04-17T15:34:23.337Z,15.47
2023-04-17T15:36:49.742Z,15.58
2023-04-17T15:39:16.163Z,15.64
2023-04-17T15:41:42.500Z,15.86
2023-04-17T15:44:08.837Z,16.03
2023-04-17T15:46:35.328Z,16.04
2023-04-17T15:49:08.879Z,16.10
2023-04-17T15:51:35.827Z,16.26
2023-04-17T15:54:02.131Z,16.26
2023-04-17T15:56:28.542Z,16.19
2023-04-17T15:58:54.930Z,16.22
2023-04-17T16:01:21.305Z,16.32
2023-04-17T16:03:48.857Z,16.38
2023-04-17T16:06:15.262Z,16.46
2023-04-17T16:08:41.638Z,16.46
2023-04-17T16:11:07.954Z,16.47
2023-04-17T16:13:34.450Z,16.45
2023-04-17T16:16:00.851Z,16.37
2023-04-17T16:18:27.270Z,16.35
2023-04-17T16:20:53.644Z,16.40
2023-04-17T16:23:20.099Z,16.32
2023-04-17T16:25:46.538Z,16.23
2023-04-17T16:28:12.909Z,16.10
2023-04-17T16:30:39.230Z,16.06
2023-04-17T16:33:05.552Z,16.09
2023-04-17T16:35:31.987Z,16.08
2023-04-17T16:37:58.326Z,15.98
2023-04-17T16:40:26.724Z,15.94
2023-04-17T16:42:54.239Z,15.84
2023-04-17T16:45:20.649Z,15.79
2023-04-17T16:47:47.032Z,15.77
2023-04-17T16:50:13.471Z,15.67
2023-04-17T16:52:41.108Z,15.59
2023-04-17T16:55:08.166Z,15.48
2023-04-17T16:57:38.134Z,15.43
2023-04-17T17:00:05.352Z,15.42
2023-04-17T17:02:31.885Z,15.44
2023-04-17T17:04:58.292Z,15.42
2023-04-17T17:07:24.684Z,15.40
2023-04-17T17:09:51.922Z,15.41
2023-04-17T17:12:18.393Z,15.35
2023-04-17T17:14:44.733Z,15.27
2023-04-17T17:17:11.098Z,15.21
2023-04-17T17:19:37.466Z,15.25
2023-04-17T17:22:03.825Z,15.11
2023-04-17T17:24:31.349Z,15.04
2023-04-17T17:26:57.714Z,14.98
2023-04-17T17:29:25.335Z,14.94
2023-04-17T17:31:51.921Z,14.84
2023-04-17T17:34:26.219Z,14.78
2023-04-17T17:36:53.470Z,14.71
2023-04-17T17:39:21.528Z,14.65
2023-04-17T17:41:48.371Z,14.62
2023-04-17T17:44:15.099Z,14.60
2023-04-17T17:46:41.976Z,14.60
2023-04-17T17:49:08.474Z,14.50
2023-04-17T17:51:34.850Z,14.43
2023-04-17T17:54:01.195Z,14.38
2023-04-17T17:56:28.761Z,14.32
2023-04-17T17:58:55.296Z,14.23
2023-04-17T18:01:24.456Z,14.17
2023-04-17T18:03:51.360Z,14.14
2023-04-17T18:06:17.977Z,14.09
2023-04-17T18:08:44.812Z,14.05
2023-04-17T18:11:12.974Z,13.99
2023-04-17T18:13:39.383Z,13.93
2023-04-17T18:16:06.196Z,13.84
2023-04-17T18:18:32.656Z,13.74
2023-04-17T18:20:58.969Z,13.68
2023-04-17T18:23:25.604Z,13.60
2023-04-17T18:26:02.577Z,13.49
2023-04-17T18:28:29.083Z,13.42
2023-04-17T18:30:55.477Z,13.35
2023-04-17T18:33:21.915Z,13.26
2023-04-17T18:35:48.300Z,13.17
2023-04-17T18:38:14.760Z,13.11
2023-04-17T18:40:41.216Z,13.04
2023-04-17T18:43:09.918Z,12.97
2023-04-17T18:45:36.313Z,12.89
2023-04-17T18:48:02.921Z,12.79
2023-04-17T18:50:29.300Z,12.74
2023-04-17T18:52:56.104Z,12.66
2023-04-17T18:55:22.508Z,12.61
2023-04-17T18:57:48.864Z,12.54
2023-04-17T19:00:15.484Z,12.47
2023-04-17T19:02:42.017Z,12.40
2023-04-17T19:05:08.879Z,12.32
2023-04-17T19:07:35.290Z,12.25
2023-04-17T19:10:01.731Z,12.21
2023-04-17T19:12:28.143Z,12.14
2023-04-17T19:14:56.999Z,12.08
2023-04-17T19:17:25.206Z,12.02
2023-04-17T19:19:51.626Z,11.99
2023-04-17T19:22:18.499Z,11.93
2023-04-17T19:24:49.476Z,11.88
2023-04-17T19:27:16.683Z,11.84
2023-04-17T19:29:43.051Z,11.76
2023-04-17T19:32:09.432Z,11.72
2023-04-17T19:34:35.757Z,11.67
2023-04-17T19:37:02.068Z,11.64
2023-04-17T19:39:28.568Z,11.60
2023-04-17T19:41:54.906Z,11.51
2023-04-17T19:44:21.212Z,11.45
2023-04-17T19:46:47.645Z,11.39
2023-04-17T19:49:15.582Z,11.36
2023-04-17T19:51:41.915Z,11.33
2023-04-17T19:54:09.839Z,11.25
2023-04-17T19:56:36.191Z,11.21
2023-04-17T19:59:03.184Z,11.18
2023-04-17T20:01:31.022Z,11.12
2023-04-17T20:03:59.233Z,11.04
2023-04-17T20:06:26.642Z,11.02
2023-04-17T20:08:52.973Z,11.00
2023-04-17T20:11:19.361Z,10.98
2023-04-17T20:13:46.474Z,10.95
2023-04-17T20:16:12.781Z,10.91
2023-04-17T20:18:39.837Z,10.89
2023-04-17T20:21:06.365Z,10.84
2023-04-17T20:23:33.019Z,10.79
2023-04-17T20:25:59.367Z,10.79
2023-04-17T20:28:28.504Z,10.77
2023-04-17T20:30:54.940Z,10.74
2023-04-17T20:33:21.344Z,10.69
2023-04-17T20:35:47.690Z,10.65
2023-04-17T20:38:14.088Z,10.63
2023-04-17T20:40:40.503Z,10.59
2023-04-17T20:43:06.999Z,10.56
2023-04-17T20:45:33.530Z,10.52
2023-04-17T20:47:59.991Z,10.46
2023-04-17T20:50:26.352Z,10.43
2023-04-17T20:52:52.805Z,10.41
2023-04-17T20:55:20.216Z,10.35
2023-04-17T20:57:47.056Z,10.28
2023-04-17T21:00:14.059Z,10.22
2023-04-17T21:02:40.694Z,10.15
2023-04-17T21:05:07.771Z,10.13
2023-04-17T21:07:34.101Z,10.09
2023-04-17T21:10:00.519Z,10.06
2023-04-17T21:12:26.880Z,10.02
2023-04-17T21:14:53.193Z,9.99
2023-04-17T21:17:19.759Z,9.95
2023-04-17T21:19:46.260Z,9.89
2023-04-17T21:22:12.984Z,9.86
2023-04-17T21:24:39.606Z,9.84
2023-04-17T21:27:06.006Z,9.79
2023-04-17T21:29:32.358Z,9.74
2023-04-17T21:31:58.828Z,9.68
2023-04-17T21:34:25.551Z,9.66
2023-04-17T21:36:53.500Z,9.62
2023-04-17T21:39:20.726Z,9.58
2023-04-17T21:41:47.054Z,9.53
2023-04-17T21:44:13.549Z,9.50
2023-04-17T21:46:40.085Z,9.49
2023-04-17T21:49:06.416Z,9.46
2023-04-17T21:51:32.754Z,9.42
2023-04-17T21:53:59.323Z,9.44
2023-04-17T21:56:25.704Z,9.41
2023-04-17T21:58:52.016Z,9.39
2023-04-17T22:01:18.393Z,9.36
2023-04-17T22:03:44.710Z,9.31
2023-04-17T22:06:11.338Z,9.29
2023-04-17T22:08:37.709Z,9.25
2023-04-17T22:11:05.258Z,9.19
2023-04-17T22:13:31.580Z,9.18
2023-04-17T22:15:58.625Z,9.15
2023-04-17T22:18:26.850Z,9.14
2023-04-17T22:20:53.281Z,9.10
2023-04-17T22:23:19.656Z,9.10
2023-04-17T22:25:45.984Z,9.06
2023-04-17T22:28:12.313Z,9.03
2023-04-17T22:30:38.779Z,9.00
2023-04-17T22:33:05.183Z,8.98
2023-04-17T22:35:31.553Z,8.96
2023-04-17T22:37:58.192Z,8.91
2023-04-17T22:40:24.600Z,8.85
2023-04-17T22:42:50.995Z,8.81
2023-04-17T22:45:17.395Z,8.80
2023-04-17T22:47:43.738Z,8.78
2023-04-17T22:50:14.087Z,8.74
2023-04-17T22:52:40.575Z,8.71
2023-04-17T22:55:07.274Z,8.68
2023-04-17T22:57:33.589Z,8.65
2023-04-17T22:59:59.957Z,8.58
2023-04-17T23:02:26.412Z,8.54
2023-04-17T23:04:52.806Z,8.51
2023-04-17T23:07:19.164Z,8.46
2023-04-17T23:09:46.394Z,8.42
2023-04-17T23:12:12.745Z,8.36
2023-04-17T23:14:39.093Z,8.32
2023-04-17T23:17:06.482Z,8.32
2023-04-17T23:19:32.887Z,8.28
2023-04-17T23:22:01.010Z,8.27
2023-04-17T23:24:27.559Z,8.26
2023-04-17T23:26:55.236Z,8.22
2023-04-17T23:29:21.567Z,8.17
2023-04-17T23:31:48.577Z,8.13
2023-04-17T23:34:15.130Z,8.13
2023-04-17T23:36:41.686Z,8.09
2023-04-17T23:39:07.999Z,8.05
2023-04-17T23:41:34.537Z,8.04
2023-04-17T23:44:01.068Z,8.02
2023-04-17T23:46:27.438Z,7.95
2023-04-17T23:48:53.804Z,7.95
2023-04-17T23:51:20.776Z,7.92
2023-04-17T23:53:47.100Z,7.92
2023-04-17T23:56:13.446Z,7.90
2023-04-17T23:58:39.862Z,7.87
